Errington Tide — YJVM6 — position and weather

sailwx.info

Track history (hours):
 
Tides and Currents Weather Stations Pressure Air Temp Water Temp Dewpoint Dewpoint Depression Visibility Wind Speed Wind Dir Waves Ship Positions

Errington Tide

Last reported at 2017-Dec-11 01:18 UTC. Time now 2018-Jan-19 03:34 UTC.
Position N 36°43' E 026°27'.
Warning: this ship's position is 39 days out of date.

Length 50 m; draft 4.2 m.

MMSI: 576467000.

Date/timePositionNaut miles runAvg speedWind from/ knotsBaromVisibWave heightAir tempDewpointWater temp
2017-Dec-11 01:18N 36°43' E 026°27'3 8.9
2017-Dec-11 01:00N 36°45' E 026°25'5 9.4
2017-Dec-11 00:30N 36°48' E 026°21'6 9.9
2017-Dec-10 23:56N 36°53' E 026°17'5 9.8
2017-Dec-10 23:29N 36°56' E 026°13'5 9.7
2017-Dec-10 23:00N 36°59' E 026°09'5 9.7
2017-Dec-10 22:30N 37°03' E 026°05'5 9.7
2017-Dec-10 22:00N 37°07' E 026°01'5 9.8
2017-Dec-10 21:30N 37°10' E 025°57'5 9.8
2017-Dec-10 21:00N 37°14' E 025°53'510.0
2017-Dec-10 20:30N 37°18' E 025°49'510.0
2017-Dec-10 20:00N 37°22' E 025°45'710.3
2017-Dec-10 19:18N 37°29' E 025°45'6 9.6
2017-Dec-10 18:41N 37°35' E 025°45'2 9.2
2017-Dec-10 18:30N 37°37' E 025°45'5 9.8
2017-Dec-10 18:00N 37°42' E 025°44'  
2017-Dec-07 18:35N 43°37' E 028°52'1 9.5
2017-Dec-07 18:30N 43°38' E 028°52'5 9.4
2017-Dec-07 17:59N 43°43' E 028°52'5 9.3
2017-Dec-07 17:30N 43°47' E 028°52'5 9.3
2017-Dec-07 17:00N 43°52' E 028°52'5 9.2
2017-Dec-07 16:30N 43°56' E 028°51'5 9.5
2017-Dec-07 16:00N 44°00' E 028°47'5 9.5
2017-Dec-07 15:30N 44°04' E 028°43'4 7.4
2017-Dec-07 15:00N 44°07' E 028°40'  
2017-Dec-04 07:47N 44°06' E 028°39'0 0.0
2017-Dec-04 07:29N 44°06' E 028°39'0 0.0
2017-Dec-04 06:59N 44°06' E 028°39'0 0.0
2017-Dec-04 06:29N 44°06' E 028°39'0 0.0
2017-Dec-04 05:59N 44°06' E 028°39'0 0.0
2017-Dec-04 05:29N 44°06' E 028°39'0 0.0
2017-Dec-04 04:59N 44°06' E 028°39'0 0.0
2017-Dec-04 04:29N 44°06' E 028°39'0 0.0
2017-Dec-04 03:59N 44°06' E 028°39'0 0.0
2017-Dec-04 03:29N 44°06' E 028°39'0 0.0
2017-Dec-04 02:59N 44°06' E 028°39'0 0.0
2017-Dec-04 02:29N 44°06' E 028°39'0 0.0
2017-Dec-04 01:59N 44°06' E 028°39'0 0.0
2017-Dec-04 01:29N 44°06' E 028°39'0 0.0
2017-Dec-04 00:59N 44°06' E 028°39'0 0.0
2017-Dec-04 00:29N 44°06' E 028°39'0 0.0
2017-Dec-03 23:59N 44°06' E 028°39'0 0.0
2017-Dec-03 23:29N 44°06' E 028°39'0 0.0
2017-Dec-03 22:59N 44°06' E 028°39'0 0.0
2017-Dec-03 22:29N 44°06' E 028°39'0 0.0
2017-Dec-03 21:59N 44°06' E 028°39'0 0.0
2017-Dec-03 21:29N 44°06' E 028°39'0 0.0
2017-Dec-03 20:59N 44°06' E 028°39'0 0.0
2017-Dec-03 20:29N 44°06' E 028°39'0 0.0
2017-Dec-03 19:59N 44°06' E 028°39'0 0.0
2017-Dec-03 19:29N 44°06' E 028°39'0 0.0
2017-Dec-03 18:59N 44°06' E 028°39'0 0.0
2017-Dec-03 18:26N 44°06' E 028°39'0 0.0
2017-Dec-03 17:59N 44°06' E 028°39'0 0.0
2017-Dec-03 17:29N 44°06' E 028°39'0 0.0
2017-Dec-03 16:59N 44°06' E 028°39'0 0.0
2017-Dec-03 16:29N 44°06' E 028°39'0 0.0
2017-Dec-03 15:59N 44°06' E 028°39'0 0.0
2017-Dec-03 15:29N 44°06' E 028°39'0 0.0
2017-Dec-03 14:59N 44°06' E 028°39'0 0.0
2017-Dec-03 14:29N 44°06' E 028°39'0 0.0
2017-Dec-03 13:59N 44°06' E 028°39'0 0.0
2017-Dec-03 13:29N 44°06' E 028°39'0 0.0
2017-Dec-03 12:59N 44°06' E 028°39'0 0.0
2017-Dec-03 12:29N 44°06' E 028°39'0 0.0
2017-Dec-03 11:59N 44°06' E 028°39'0 0.0
2017-Dec-03 11:29N 44°06' E 028°39'0 0.0
2017-Dec-03 10:59N 44°06' E 028°39'0 0.0
2017-Dec-03 10:29N 44°06' E 028°39'0 0.0
2017-Dec-03 09:59N 44°06' E 028°39'0 0.0
2017-Dec-03 09:29N 44°06' E 028°39'0 0.0
2017-Dec-03 08:59N 44°06' E 028°39'0 0.0
2017-Dec-03 08:29N 44°06' E 028°39'0 0.0
2017-Dec-03 07:59N 44°06' E 028°39'0 0.0
2017-Dec-03 07:29N 44°06' E 028°39'0 0.0
2017-Dec-03 06:59N 44°06' E 028°39'0 0.0
2017-Dec-03 06:29N 44°06' E 028°39'0 0.0
2017-Dec-03 05:59N 44°06' E 028°39'0 0.0
2017-Dec-03 05:29N 44°06' E 028°39'0 0.0
2017-Dec-03 04:59N 44°06' E 028°39'0 0.0
2017-Dec-03 04:29N 44°06' E 028°39'0 0.0
2017-Dec-03 03:59N 44°06' E 028°39'0 0.0
2017-Dec-03 03:29N 44°06' E 028°39'0 0.0
2017-Dec-03 02:59N 44°06' E 028°39'0 0.0
2017-Dec-03 02:29N 44°06' E 028°39'0 0.0
2017-Dec-03 01:59N 44°06' E 028°39'0 0.0
2017-Dec-03 01:29N 44°06' E 028°39'0 0.0
2017-Dec-03 00:59N 44°06' E 028°39'0 0.0
2017-Dec-03 00:29N 44°06' E 028°39'0 0.0
2017-Dec-02 23:59N 44°06' E 028°39'0 0.0
2017-Dec-02 23:29N 44°06' E 028°39'0 0.0
2017-Dec-02 22:59N 44°06' E 028°39'0 0.0
2017-Dec-02 22:29N 44°06' E 028°39'0 0.0
2017-Dec-02 21:59N 44°06' E 028°39'0 0.0
2017-Dec-02 21:29N 44°06' E 028°39'0 0.0
2017-Dec-02 20:59N 44°06' E 028°39'0 0.0
2017-Dec-02 20:29N 44°06' E 028°39'0 0.0
2017-Dec-02 19:59N 44°06' E 028°39'0 0.0
2017-Dec-02 19:29N 44°06' E 028°39'0 0.0
2017-Dec-02 18:59N 44°06' E 028°39'0 0.0
2017-Dec-02 18:29N 44°06' E 028°39'0 0.0
2017-Dec-02 17:59N 44°06' E 028°39'0 0.0
2017-Dec-02 17:29N 44°06' E 028°39'0 0.0
2017-Dec-02 16:59N 44°06' E 028°39'0 0.0
2017-Dec-02 16:29N 44°06' E 028°39'0 0.0
2017-Dec-02 15:59N 44°06' E 028°39'0 0.0
2017-Dec-02 15:29N 44°06' E 028°39'0 0.0
2017-Dec-02 15:00N 44°06' E 028°39'0 0.0
2017-Dec-02 14:31N 44°06' E 028°39'0 0.0
2017-Dec-02 14:01N 44°06' E 028°39'0 0.0
2017-Dec-02 13:30N 44°06' E 028°39'0 0.0
2017-Dec-02 13:01N 44°06' E 028°39'0 0.0
2017-Dec-02 12:31N 44°06' E 028°39'0 0.0
2017-Dec-02 12:01N 44°06' E 028°39'0 0.0
2017-Dec-02 11:31N 44°06' E 028°39'0 0.6
2017-Dec-02 11:01N 44°07' E 028°39'3 6.7
2017-Dec-02 10:30N 44°06' E 028°44'4 7.0
2017-Dec-02 10:01N 44°06' E 028°48'4 8.0
2017-Dec-02 09:31N 44°07' E 028°54'3 5.1
2017-Dec-02 09:00N 44°06' E 028°57'0 0.1
2017-Dec-02 08:30N 44°06' E 028°57'0 0.0
2017-Dec-02 08:01N 44°06' E 028°57'0 0.6
2017-Dec-02 07:31N 44°05' E 028°57'0 0.4
2017-Dec-02 07:01N 44°05' E 028°57'0 0.0
2017-Dec-02 06:31N 44°05' E 028°57'0 0.0
2017-Dec-02 06:01N 44°05' E 028°57'0 0.0
2017-Dec-02 05:31N 44°05' E 028°57'0 0.0
2017-Dec-02 05:00N 44°05' E 028°57'0 0.0
2017-Dec-02 04:31N 44°05' E 028°57'0 0.0
2017-Dec-02 04:00N 44°05' E 028°57'0 0.0
2017-Dec-02 03:31N 44°05' E 028°57'0 0.0
2017-Dec-02 03:01N 44°05' E 028°57'0 0.0
2017-Dec-02 02:30N 44°05' E 028°57'0 0.1
2017-Dec-02 02:01N 44°05' E 028°57'0 0.5
2017-Dec-02 01:31N 44°05' E 028°57'0 0.4
2017-Dec-02 01:01N 44°05' E 028°57'0 0.0
2017-Dec-02 00:31N 44°05' E 028°57'0 0.0
2017-Dec-02 00:00N 44°05' E 028°57'0 0.0
2017-Dec-01 23:31N 44°05' E 028°57'0 0.0
2017-Dec-01 23:01N 44°05' E 028°57'0 0.0
2017-Dec-01 22:30N 44°05' E 028°57'0 0.0
2017-Dec-01 22:01N 44°05' E 028°57'0 0.0
2017-Dec-01 21:30N 44°05' E 028°57'0 0.0
2017-Dec-01 21:01N 44°05' E 028°57'0 0.0
2017-Dec-01 20:30N 44°05' E 028°57'0 0.0
2017-Dec-01 20:01N 44°05' E 028°57'0 0.4
2017-Dec-01 19:30N 44°05' E 028°57'0 0.3
2017-Dec-01 19:01N 44°05' E 028°57'0 0.1
2017-Dec-01 18:31N 44°05' E 028°57'0 0.0
2017-Dec-01 18:01N 44°05' E 028°57'0 0.0
2017-Dec-01 17:30N 44°05' E 028°57'0 0.0
2017-Dec-01 17:00N 44°05' E 028°57'0 0.3
2017-Dec-01 16:31N 44°05' E 028°57'1 1.1
2017-Dec-01 16:01N 44°06' E 028°57'1 2.1
2017-Dec-01 15:31N 44°05' E 028°56'1 2.5
2017-Dec-01 15:00N 44°04' E 028°56'1 2.7
2017-Dec-01 14:31N 44°02' E 028°56'1 2.9
2017-Dec-01 14:01N 44°01' E 028°56'1 2.9
2017-Dec-01 13:31N 43°59' E 028°56'1 1.5
2017-Dec-01 13:00N 44°00' E 028°56'1 1.8
2017-Dec-01 12:30N 44°01' E 028°57'1 1.6
2017-Dec-01 12:01N 44°02' E 028°57'1 1.7
2017-Dec-01 11:31N 44°03' E 028°56'1 1.9
2017-Dec-01 11:01N 44°04' E 028°56'1 1.8
2017-Dec-01 10:31N 44°05' E 028°56'1 1.8
2017-Dec-01 10:00N 44°05' E 028°56'1 1.8
2017-Dec-01 09:31N 44°06' E 028°56'1 1.7
2017-Dec-01 09:01N 44°07' E 028°56'1 2.0
2017-Dec-01 08:31N 44°08' E 028°56'1 2.0
2017-Dec-01 08:01N 44°09' E 028°56'1 1.5
2017-Dec-01 07:31N 44°10' E 028°56'1 1.7
2017-Dec-01 07:01N 44°09' E 028°56'2 3.3
2017-Dec-01 06:31N 44°08' E 028°56'2 3.3
2017-Dec-01 06:01N 44°06' E 028°56'2 3.1
2017-Dec-01 05:31N 44°04' E 028°56'2 3.1
2017-Dec-01 05:01N 44°03' E 028°56'2 3.0
2017-Dec-01 04:31N 44°01' E 028°56'2 3.1
2017-Dec-01 04:00N 43°60' E 028°56'1 2.7
2017-Dec-01 03:30N 43°58' E 028°56'1 2.0
2017-Dec-01 03:00N 43°59' E 028°56'1 1.9
2017-Dec-01 02:31N 44°00' E 028°56'1 1.9
2017-Dec-01 02:01N 44°01' E 028°56'1 2.0
2017-Dec-01 01:30N 44°02' E 028°56'  
Track history (hours):
 
Tides and Currents Weather Stations Pressure Air Temp Water Temp Dewpoint Dewpoint Depression Visibility Wind Speed Wind Dir Waves Ship Positions

Errington Tide

Last reported at 2017-Dec-11 01:18 UTC. Time now 2018-Jan-19 03:34 UTC.
Position N 36°43' E 026°27'.
Warning: this ship's position is 39 days out of date.

Length 50 m; draft 4.2 m.

MMSI: 576467000.

Date/timePositionNaut miles runAvg speedWind from/ knotsBaromVisibWave heightAir tempDewpointWater temp
2017-Dec-11 01:18N 36°43' E 026°27'3 8.9
2017-Dec-11 01:00N 36°45' E 026°25'5 9.4
2017-Dec-11 00:30N 36°48' E 026°21'6 9.9
2017-Dec-10 23:56N 36°53' E 026°17'5 9.8
2017-Dec-10 23:29N 36°56' E 026°13'5 9.7
2017-Dec-10 23:00N 36°59' E 026°09'5 9.7
2017-Dec-10 22:30N 37°03' E 026°05'5 9.7
2017-Dec-10 22:00N 37°07' E 026°01'5 9.8
2017-Dec-10 21:30N 37°10' E 025°57'5 9.8
2017-Dec-10 21:00N 37°14' E 025°53'510.0
2017-Dec-10 20:30N 37°18' E 025°49'510.0
2017-Dec-10 20:00N 37°22' E 025°45'710.3
2017-Dec-10 19:18N 37°29' E 025°45'6 9.6
2017-Dec-10 18:41N 37°35' E 025°45'2 9.2
2017-Dec-10 18:30N 37°37' E 025°45'5 9.8
2017-Dec-10 18:00N 37°42' E 025°44'  
2017-Dec-07 18:35N 43°37' E 028°52'1 9.5
2017-Dec-07 18:30N 43°38' E 028°52'5 9.4
2017-Dec-07 17:59N 43°43' E 028°52'5 9.3
2017-Dec-07 17:30N 43°47' E 028°52'5 9.3
2017-Dec-07 17:00N 43°52' E 028°52'5 9.2
2017-Dec-07 16:30N 43°56' E 028°51'5 9.5
2017-Dec-07 16:00N 44°00' E 028°47'5 9.5
2017-Dec-07 15:30N 44°04' E 028°43'4 7.4
2017-Dec-07 15:00N 44°07' E 028°40'  
2017-Dec-04 07:47N 44°06' E 028°39'0 0.0
2017-Dec-04 07:29N 44°06' E 028°39'0 0.0
2017-Dec-04 06:59N 44°06' E 028°39'0 0.0
2017-Dec-04 06:29N 44°06' E 028°39'0 0.0
2017-Dec-04 05:59N 44°06' E 028°39'0 0.0
2017-Dec-04 05:29N 44°06' E 028°39'0 0.0
2017-Dec-04 04:59N 44°06' E 028°39'0 0.0
2017-Dec-04 04:29N 44°06' E 028°39'0 0.0
2017-Dec-04 03:59N 44°06' E 028°39'0 0.0
2017-Dec-04 03:29N 44°06' E 028°39'0 0.0
2017-Dec-04 02:59N 44°06' E 028°39'0 0.0
2017-Dec-04 02:29N 44°06' E 028°39'0 0.0
2017-Dec-04 01:59N 44°06' E 028°39'0 0.0
2017-Dec-04 01:29N 44°06' E 028°39'0 0.0
2017-Dec-04 00:59N 44°06' E 028°39'0 0.0
2017-Dec-04 00:29N 44°06' E 028°39'0 0.0
2017-Dec-03 23:59N 44°06' E 028°39'0 0.0
2017-Dec-03 23:29N 44°06' E 028°39'0 0.0
2017-Dec-03 22:59N 44°06' E 028°39'0 0.0
2017-Dec-03 22:29N 44°06' E 028°39'0 0.0
2017-Dec-03 21:59N 44°06' E 028°39'0 0.0
2017-Dec-03 21:29N 44°06' E 028°39'0 0.0
2017-Dec-03 20:59N 44°06' E 028°39'0 0.0
2017-Dec-03 20:29N 44°06' E 028°39'0 0.0
2017-Dec-03 19:59N 44°06' E 028°39'0 0.0
2017-Dec-03 19:29N 44°06' E 028°39'0 0.0
2017-Dec-03 18:59N 44°06' E 028°39'0 0.0
2017-Dec-03 18:26N 44°06' E 028°39'0 0.0
2017-Dec-03 17:59N 44°06' E 028°39'0 0.0
2017-Dec-03 17:29N 44°06' E 028°39'0 0.0
2017-Dec-03 16:59N 44°06' E 028°39'0 0.0
2017-Dec-03 16:29N 44°06' E 028°39'0 0.0
2017-Dec-03 15:59N 44°06' E 028°39'0 0.0
2017-Dec-03 15:29N 44°06' E 028°39'0 0.0
2017-Dec-03 14:59N 44°06' E 028°39'0 0.0
2017-Dec-03 14:29N 44°06' E 028°39'0 0.0
2017-Dec-03 13:59N 44°06' E 028°39'0 0.0
2017-Dec-03 13:29N 44°06' E 028°39'0 0.0
2017-Dec-03 12:59N 44°06' E 028°39'0 0.0
2017-Dec-03 12:29N 44°06' E 028°39'0 0.0
2017-Dec-03 11:59N 44°06' E 028°39'0 0.0
2017-Dec-03 11:29N 44°06' E 028°39'0 0.0
2017-Dec-03 10:59N 44°06' E 028°39'0 0.0
2017-Dec-03 10:29N 44°06' E 028°39'0 0.0
2017-Dec-03 09:59N 44°06' E 028°39'0 0.0
2017-Dec-03 09:29N 44°06' E 028°39'0 0.0
2017-Dec-03 08:59N 44°06' E 028°39'0 0.0
2017-Dec-03 08:29N 44°06' E 028°39'0 0.0
2017-Dec-03 07:59N 44°06' E 028°39'0 0.0
2017-Dec-03 07:29N 44°06' E 028°39'0 0.0
2017-Dec-03 06:59N 44°06' E 028°39'0 0.0
2017-Dec-03 06:29N 44°06' E 028°39'0 0.0
2017-Dec-03 05:59N 44°06' E 028°39'0 0.0
2017-Dec-03 05:29N 44°06' E 028°39'0 0.0
2017-Dec-03 04:59N 44°06' E 028°39'0 0.0
2017-Dec-03 04:29N 44°06' E 028°39'0 0.0
2017-Dec-03 03:59N 44°06' E 028°39'0 0.0
2017-Dec-03 03:29N 44°06' E 028°39'0 0.0
2017-Dec-03 02:59N 44°06' E 028°39'0 0.0
2017-Dec-03 02:29N 44°06' E 028°39'0 0.0
2017-Dec-03 01:59N 44°06' E 028°39'0 0.0
2017-Dec-03 01:29N 44°06' E 028°39'0 0.0
2017-Dec-03 00:59N 44°06' E 028°39'0 0.0
2017-Dec-03 00:29N 44°06' E 028°39'0 0.0
2017-Dec-02 23:59N 44°06' E 028°39'0 0.0
2017-Dec-02 23:29N 44°06' E 028°39'0 0.0
2017-Dec-02 22:59N 44°06' E 028°39'0 0.0
2017-Dec-02 22:29N 44°06' E 028°39'0 0.0
2017-Dec-02 21:59N 44°06' E 028°39'0 0.0
2017-Dec-02 21:29N 44°06' E 028°39'0 0.0
2017-Dec-02 20:59N 44°06' E 028°39'0 0.0
2017-Dec-02 20:29N 44°06' E 028°39'0 0.0
2017-Dec-02 19:59N 44°06' E 028°39'0 0.0
2017-Dec-02 19:29N 44°06' E 028°39'0 0.0
2017-Dec-02 18:59N 44°06' E 028°39'0 0.0
2017-Dec-02 18:29N 44°06' E 028°39'0 0.0
2017-Dec-02 17:59N 44°06' E 028°39'0 0.0
2017-Dec-02 17:29N 44°06' E 028°39'0 0.0
2017-Dec-02 16:59N 44°06' E 028°39'0 0.0
2017-Dec-02 16:29N 44°06' E 028°39'0 0.0
2017-Dec-02 15:59N 44°06' E 028°39'0 0.0
2017-Dec-02 15:29N 44°06' E 028°39'0 0.0
2017-Dec-02 15:00N 44°06' E 028°39'0 0.0
2017-Dec-02 14:31N 44°06' E 028°39'0 0.0
2017-Dec-02 14:01N 44°06' E 028°39'0 0.0
2017-Dec-02 13:30N 44°06' E 028°39'0 0.0
2017-Dec-02 13:01N 44°06' E 028°39'0 0.0
2017-Dec-02 12:31N 44°06' E 028°39'0 0.0
2017-Dec-02 12:01N 44°06' E 028°39'0 0.0
2017-Dec-02 11:31N 44°06' E 028°39'0 0.6
2017-Dec-02 11:01N 44°07' E 028°39'3 6.7
2017-Dec-02 10:30N 44°06' E 028°44'4 7.0
2017-Dec-02 10:01N 44°06' E 028°48'4 8.0
2017-Dec-02 09:31N 44°07' E 028°54'3 5.1
2017-Dec-02 09:00N 44°06' E 028°57'0 0.1
2017-Dec-02 08:30N 44°06' E 028°57'0 0.0
2017-Dec-02 08:01N 44°06' E 028°57'0 0.6
2017-Dec-02 07:31N 44°05' E 028°57'0 0.4
2017-Dec-02 07:01N 44°05' E 028°57'0 0.0
2017-Dec-02 06:31N 44°05' E 028°57'0 0.0
2017-Dec-02 06:01N 44°05' E 028°57'0 0.0
2017-Dec-02 05:31N 44°05' E 028°57'0 0.0
2017-Dec-02 05:00N 44°05' E 028°57'0 0.0
2017-Dec-02 04:31N 44°05' E 028°57'0 0.0
2017-Dec-02 04:00N 44°05' E 028°57'0 0.0
2017-Dec-02 03:31N 44°05' E 028°57'0 0.0
2017-Dec-02 03:01N 44°05' E 028°57'0 0.0
2017-Dec-02 02:30N 44°05' E 028°57'0 0.1
2017-Dec-02 02:01N 44°05' E 028°57'0 0.5
2017-Dec-02 01:31N 44°05' E 028°57'0 0.4
2017-Dec-02 01:01N 44°05' E 028°57'0 0.0
2017-Dec-02 00:31N 44°05' E 028°57'0 0.0
2017-Dec-02 00:00N 44°05' E 028°57'0 0.0
2017-Dec-01 23:31N 44°05' E 028°57'0 0.0
2017-Dec-01 23:01N 44°05' E 028°57'0 0.0
2017-Dec-01 22:30N 44°05' E 028°57'0 0.0
2017-Dec-01 22:01N 44°05' E 028°57'0 0.0
2017-Dec-01 21:30N 44°05' E 028°57'0 0.0
2017-Dec-01 21:01N 44°05' E 028°57'0 0.0
2017-Dec-01 20:30N 44°05' E 028°57'0 0.0
2017-Dec-01 20:01N 44°05' E 028°57'0 0.4
2017-Dec-01 19:30N 44°05' E 028°57'0 0.3
2017-Dec-01 19:01N 44°05' E 028°57'0 0.1
2017-Dec-01 18:31N 44°05' E 028°57'0 0.0
2017-Dec-01 18:01N 44°05' E 028°57'0 0.0
2017-Dec-01 17:30N 44°05' E 028°57'0 0.0
2017-Dec-01 17:00N 44°05' E 028°57'0 0.3
2017-Dec-01 16:31N 44°05' E 028°57'1 1.1
2017-Dec-01 16:01N 44°06' E 028°57'1 2.1
2017-Dec-01 15:31N 44°05' E 028°56'1 2.5
2017-Dec-01 15:00N 44°04' E 028°56'1 2.7
2017-Dec-01 14:31N 44°02' E 028°56'1 2.9
2017-Dec-01 14:01N 44°01' E 028°56'1 2.9
2017-Dec-01 13:31N 43°59' E 028°56'1 1.5
2017-Dec-01 13:00N 44°00' E 028°56'1 1.8
2017-Dec-01 12:30N 44°01' E 028°57'1 1.6
2017-Dec-01 12:01N 44°02' E 028°57'1 1.7
2017-Dec-01 11:31N 44°03' E 028°56'1 1.9
2017-Dec-01 11:01N 44°04' E 028°56'1 1.8
2017-Dec-01 10:31N 44°05' E 028°56'1 1.8
2017-Dec-01 10:00N 44°05' E 028°56'1 1.8
2017-Dec-01 09:31N 44°06' E 028°56'1 1.7
2017-Dec-01 09:01N 44°07' E 028°56'1 2.0
2017-Dec-01 08:31N 44°08' E 028°56'1 2.0
2017-Dec-01 08:01N 44°09' E 028°56'1 1.5
2017-Dec-01 07:31N 44°10' E 028°56'1 1.7
2017-Dec-01 07:01N 44°09' E 028°56'2 3.3
2017-Dec-01 06:31N 44°08' E 028°56'2 3.3
2017-Dec-01 06:01N 44°06' E 028°56'2 3.1
2017-Dec-01 05:31N 44°04' E 028°56'2 3.1
2017-Dec-01 05:01N 44°03' E 028°56'2 3.0
2017-Dec-01 04:31N 44°01' E 028°56'2 3.1
2017-Dec-01 04:00N 43°60' E 028°56'1 2.7
2017-Dec-01 03:30N 43°58' E 028°56'1 2.0
2017-Dec-01 03:00N 43°59' E 028°56'1 1.9
2017-Dec-01 02:31N 44°00' E 028°56'1 1.9
2017-Dec-01 02:01N 44°01' E 028°56'1 2.0
2017-Dec-01 01:30N 44°02' E 028°56'  

Dump ship's entire track history